sensor_id;sensor_type;location;lat;lon;timestamp;pressure;altitude;pressure_sealevel;temperature;humidity
12793;BME280;6460;42.684;23.260;2023-12-22T00:00:11;93106.94;;;2.02;100.00
12793;BME280;6460;42.684;23.260;2023-12-22T00:02:39;93100.19;;;2.05;100.00
12793;BME280;6460;42.684;23.260;2023-12-22T00:05:08;93102.75;;;2.01;100.00
12793;BME280;6460;42.684;23.260;2023-12-22T00:07:38;93097.75;;;1.84;100.00
12793;BME280;6460;42.684;23.260;2023-12-22T00:10:06;93101.91;;;1.97;100.00
12793;BME280;6460;42.684;23.260;2023-12-22T00:12:35;93098.56;;;2.00;100.00
12793;BME280;6460;42.684;23.260;2023-12-22T00:15:04;93086.63;;;2.06;100.00
12793;BME280;6460;42.684;23.260;2023-12-22T00:17:33;93082.25;;;2.14;100.00
12793;BME280;6460;42.684;23.260;2023-12-22T00:20:01;93080.91;;;1.37;100.00
12793;BME280;6460;42.684;23.260;2023-12-22T00:22:29;93106.69;;;1.40;100.00
12793;BME280;6460;42.684;23.260;2023-12-22T00:24:58;93073.84;;;1.29;100.00
12793;BME280;6460;42.684;23.260;2023-12-22T00:27:26;93088.84;;;1.25;100.00
12793;BME280;6460;42.684;23.260;2023-12-22T00:29:54;93070.31;;;1.37;100.00
12793;BME280;6460;42.684;23.260;2023-12-22T00:32:22;93065.38;;;0.99;100.00
12793;BME280;6460;42.684;23.260;2023-12-22T00:34:49;93044.28;;;1.39;100.00
12793;BME280;6460;42.684;23.260;2023-12-22T00:37:17;93059.69;;;0.85;100.00
12793;BME280;6460;42.684;23.260;2023-12-22T00:40:05;93042.19;;;1.32;100.00
12793;BME280;6460;42.684;23.260;2023-12-22T00:42:34;93048.25;;;1.33;100.00
12793;BME280;6460;42.684;23.260;2023-12-22T00:45:02;93045.00;;;1.51;100.00
12793;BME280;6460;42.684;23.260;2023-12-22T00:47:30;93036.25;;;1.63;100.00
12793;BME280;6460;42.684;23.260;2023-12-22T00:50:01;93055.91;;;1.62;100.00
12793;BME280;6460;42.684;23.260;2023-12-22T00:52:30;93049.41;;;1.59;100.00
12793;BME280;6460;42.684;23.260;2023-12-22T00:54:58;93054.81;;;1.51;100.00
12793;BME280;6460;42.684;23.260;2023-12-22T00:57:28;93041.13;;;1.61;100.00
12793;BME280;6460;42.684;23.260;2023-12-22T00:59:56;93051.91;;;1.28;100.00
12793;BME280;6460;42.684;23.260;2023-12-22T01:02:24;93053.56;;;1.33;100.00
12793;BME280;6460;42.684;23.260;2023-12-22T01:04:52;93040.50;;;1.52;100.00
12793;BME280;6460;42.684;23.260;2023-12-22T01:07:20;93044.03;;;1.44;100.00
12793;BME280;6460;42.684;23.260;2023-12-22T01:09:48;93055.25;;;1.13;100.00
12793;BME280;6460;42.684;23.260;2023-12-22T01:12:15;93061.66;;;1.52;100.00
12793;BME280;6460;42.684;23.260;2023-12-22T01:14:44;93043.53;;;1.26;100.00
12793;BME280;6460;42.684;23.260;2023-12-22T01:17:12;93046.22;;;1.54;100.00
12793;BME280;6460;42.684;23.260;2023-12-22T01:19:40;93046.16;;;1.66;100.00
12793;BME280;6460;42.684;23.260;2023-12-22T01:22:08;93048.38;;;1.64;100.00
12793;BME280;6460;42.684;23.260;2023-12-22T01:24:36;93040.59;;;1.83;100.00
12793;BME280;6460;42.684;23.260;2023-12-22T01:27:09;93038.34;;;1.30;100.00
12793;BME280;6460;42.684;23.260;2023-12-22T01:29:36;93033.69;;;1.67;100.00
12793;BME280;6460;42.684;23.260;2023-12-22T01:32:06;93040.19;;;1.41;100.00
12793;BME280;6460;42.684;23.260;2023-12-22T01:34:34;93033.84;;;1.58;100.00
12793;BME280;6460;42.684;23.260;2023-12-22T01:37:02;93006.91;;;1.68;100.00
12793;BME280;6460;42.684;23.260;2023-12-22T01:39:30;93006.69;;;1.61;100.00
12793;BME280;6460;42.684;23.260;2023-12-22T01:41:58;93017.22;;;1.05;100.00
12793;BME280;6460;42.684;23.260;2023-12-22T01:44:26;92991.28;;;1.51;100.00
12793;BME280;6460;42.684;23.260;2023-12-22T01:46:55;92999.63;;;0.97;100.00
12793;BME280;6460;42.684;23.260;2023-12-22T01:49:24;93005.00;;;1.41;100.00
12793;BME280;6460;42.684;23.260;2023-12-22T01:51:53;92998.75;;;1.33;100.00
12793;BME280;6460;42.684;23.260;2023-12-22T01:54:21;92971.38;;;1.41;100.00
12793;BME280;6460;42.684;23.260;2023-12-22T01:56:49;92994.41;;;1.53;100.00
12793;BME280;6460;42.684;23.260;2023-12-22T01:59:17;92993.47;;;1.61;100.00
12793;BME280;6460;42.684;23.260;2023-12-22T02:01:45;93002.28;;;1.65;100.00
12793;BME280;6460;42.684;23.260;2023-12-22T02:04:15;92996.09;;;1.61;100.00
12793;BME280;6460;42.684;23.260;2023-12-22T02:06:44;93003.16;;;1.69;100.00
12793;BME280;6460;42.684;23.260;2023-12-22T02:09:11;92996.66;;;1.82;100.00
12793;BME280;6460;42.684;23.260;2023-12-22T02:11:39;92977.63;;;1.77;100.00
12793;BME280;6460;42.684;23.260;2023-12-22T02:14:07;92976.41;;;1.74;100.00
12793;BME280;6460;42.684;23.260;2023-12-22T02:16:40;92962.16;;;1.79;100.00
12793;BME280;6460;42.684;23.260;2023-12-22T02:19:20;92973.22;;;1.53;100.00
12793;BME280;6460;42.684;23.260;2023-12-22T02:22:12;92973.91;;;1.50;100.00
12793;BME280;6460;42.684;23.260;2023-12-22T02:24:41;92958.31;;;1.92;100.00
12793;BME280;6460;42.684;23.260;2023-12-22T02:27:17;92966.69;;;1.78;100.00
12793;BME280;6460;42.684;23.260;2023-12-22T02:29:51;92955.53;;;2.00;100.00
12793;BME280;6460;42.684;23.260;2023-12-22T02:32:22;92959.56;;;2.10;100.00
12793;BME280;6460;42.684;23.260;2023-12-22T02:34:52;92968.00;;;2.16;100.00
12793;BME280;6460;42.684;23.260;2023-12-22T02:37:22;92969.88;;;2.31;100.00
12793;BME280;6460;42.684;23.260;2023-12-22T02:39:52;92954.16;;;1.91;100.00
12793;BME280;6460;42.684;23.260;2023-12-22T02:42:21;92985.06;;;1.31;100.00
12793;BME280;6460;42.684;23.260;2023-12-22T02:44:56;92969.19;;;1.43;100.00
12793;BME280;6460;42.684;23.260;2023-12-22T02:47:24;92973.19;;;1.81;100.00
12793;BME280;6460;42.684;23.260;2023-12-22T02:49:53;92977.91;;;1.87;100.00
12793;BME280;6460;42.684;23.260;2023-12-22T02:52:21;92948.75;;;1.72;100.00
12793;BME280;6460;42.684;23.260;2023-12-22T02:54:48;92952.44;;;1.98;100.00
12793;BME280;6460;42.684;23.260;2023-12-22T02:57:17;92943.97;;;2.08;100.00
12793;BME280;6460;42.684;23.260;2023-12-22T02:59:44;92937.84;;;2.20;100.00
12793;BME280;6460;42.684;23.260;2023-12-22T03:02:12;92931.78;;;2.20;100.00
12793;BME280;6460;42.684;23.260;2023-12-22T03:04:40;92931.78;;;2.20;100.00
12793;BME280;6460;42.684;23.260;2023-12-22T03:07:07;92926.03;;;2.18;100.00
12793;BME280;6460;42.684;23.260;2023-12-22T03:09:35;92933.56;;;2.31;100.00
12793;BME280;6460;42.684;23.260;2023-12-22T03:12:03;92932.34;;;2.44;100.00
12793;BME280;6460;42.684;23.260;2023-12-22T03:14:33;92926.63;;;2.27;100.00
12793;BME280;6460;42.684;23.260;2023-12-22T03:17:01;92942.28;;;2.16;100.00
12793;BME280;6460;42.684;23.260;2023-12-22T03:19:29;92949.09;;;2.17;100.00
12793;BME280;6460;42.684;23.260;2023-12-22T03:21:57;92944.44;;;2.26;100.00
12793;BME280;6460;42.684;23.260;2023-12-22T03:24:26;92949.38;;;2.28;100.00
12793;BME280;6460;42.684;23.260;2023-12-22T03:26:54;92948.25;;;2.44;100.00
12793;BME280;6460;42.684;23.260;2023-12-22T03:29:22;92938.50;;;2.48;100.00
12793;BME280;6460;42.684;23.260;2023-12-22T03:31:51;92940.63;;;2.43;100.00
12793;BME280;6460;42.684;23.260;2023-12-22T03:34:19;92942.69;;;2.34;100.00
12793;BME280;6460;42.684;23.260;2023-12-22T03:36:47;92942.88;;;2.41;100.00
12793;BME280;6460;42.684;23.260;2023-12-22T03:39:15;92941.13;;;2.64;100.00
12793;BME280;6460;42.684;23.260;2023-12-22T03:41:43;92941.66;;;2.54;100.00
12793;BME280;6460;42.684;23.260;2023-12-22T03:44:10;92941.13;;;2.64;100.00
12793;BME280;6460;42.684;23.260;2023-12-22T03:46:37;92946.59;;;2.71;100.00
12793;BME280;6460;42.684;23.260;2023-12-22T03:49:07;92941.13;;;2.64;100.00
12793;BME280;6460;42.684;23.260;2023-12-22T03:51:34;92948.06;;;2.88;100.00
12793;BME280;6460;42.684;23.260;2023-12-22T03:54:03;92934.72;;;2.84;100.00
12793;BME280;6460;42.684;23.260;2023-12-22T03:56:31;92946.69;;;2.94;100.00
12793;BME280;6460;42.684;23.260;2023-12-22T03:58:59;92939.50;;;2.94;100.00
12793;BME280;6460;42.684;23.260;2023-12-22T04:01:27;92951.50;;;2.38;100.00
12793;BME280;6460;42.684;23.260;2023-12-22T04:03:55;92940.72;;;2.81;100.00
12793;BME280;6460;42.684;23.260;2023-12-22T04:06:25;92945.09;;;2.89;100.00
12793;BME280;6460;42.684;23.260;2023-12-22T04:08:53;92947.00;;;2.73;100.00
12793;BME280;6460;42.684;23.260;2023-12-22T04:11:21;92948.72;;;2.65;100.00
12793;BME280;6460;42.684;23.260;2023-12-22T04:13:49;92950.53;;;2.46;100.00
12793;BME280;6460;42.684;23.260;2023-12-22T04:16:17;92956.50;;;2.74;100.00
12793;BME280;6460;42.684;23.260;2023-12-22T04:18:45;92952.97;;;2.86;100.00
12793;BME280;6460;42.684;23.260;2023-12-22T04:21:12;92947.34;;;2.72;100.00
12793;BME280;6460;42.684;23.260;2023-12-22T04:23:41;92943.34;;;2.97;100.00
12793;BME280;6460;42.684;23.260;2023-12-22T04:26:09;92939.09;;;2.92;100.00
12793;BME280;6460;42.684;23.260;2023-12-22T04:28:36;92933.59;;;2.66;100.00
12793;BME280;6460;42.684;23.260;2023-12-22T04:31:04;92931.97;;;2.96;100.00
12793;BME280;6460;42.684;23.260;2023-12-22T04:33:32;92922.44;;;2.76;100.00
12793;BME280;6460;42.684;23.260;2023-12-22T04:36:00;92926.53;;;2.89;100.00
12793;BME280;6460;42.684;23.260;2023-12-22T04:38:27;92920.22;;;2.97;100.00
12793;BME280;6460;42.684;23.260;2023-12-22T04:40:56;92916.75;;;2.93;100.00
12793;BME280;6460;42.684;23.260;2023-12-22T04:43:24;92912.72;;;3.18;100.00
12793;BME280;6460;42.684;23.260;2023-12-22T04:45:52;92914.13;;;3.12;100.00
12793;BME280;6460;42.684;23.260;2023-12-22T04:48:20;92907.47;;;3.22;100.00
12793;BME280;6460;42.684;23.260;2023-12-22T04:50:47;92911.56;;;3.00;100.00
12793;BME280;6460;42.684;23.260;2023-12-22T04:53:14;92899.53;;;3.03;100.00
12793;BME280;6460;42.684;23.260;2023-12-22T04:55:41;92902.81;;;3.15;100.00
12793;BME280;6460;42.684;23.260;2023-12-22T04:58:10;92912.19;;;2.94;100.00
12793;BME280;6460;42.684;23.260;2023-12-22T05:00:38;92898.59;;;2.95;100.00
12793;BME280;6460;42.684;23.260;2023-12-22T05:03:05;92882.81;;;3.02;100.00
12793;BME280;6460;42.684;23.260;2023-12-22T05:05:33;92895.53;;;2.93;100.00
12793;BME280;6460;42.684;23.260;2023-12-22T05:08:00;92899.06;;;2.82;100.00
12793;BME280;6460;42.684;23.260;2023-12-22T05:10:28;92889.72;;;2.88;100.00
12793;BME280;6460;42.684;23.260;2023-12-22T05:12:56;92892.56;;;2.79;100.00
12793;BME280;6460;42.684;23.260;2023-12-22T05:15:25;92877.00;;;2.78;100.00
12793;BME280;6460;42.684;23.260;2023-12-22T05:17:52;92869.88;;;2.62;100.00
12793;BME280;6460;42.684;23.260;2023-12-22T05:20:19;92900.84;;;3.32;100.00
12793;BME280;6460;42.684;23.260;2023-12-22T05:22:47;92879.25;;;3.33;100.00
12793;BME280;6460;42.684;23.260;2023-12-22T05:25:14;92859.88;;;3.97;100.00
12793;BME280;6460;42.684;23.260;2023-12-22T05:27:42;92882.47;;;4.33;100.00
12793;BME280;6460;42.684;23.260;2023-12-22T05:30:11;92881.75;;;4.92;100.00
12793;BME280;6460;42.684;23.260;2023-12-22T05:32:41;92888.41;;;5.72;100.00
12793;BME280;6460;42.684;23.260;2023-12-22T05:35:09;92868.06;;;5.94;100.00
12793;BME280;6460;42.684;23.260;2023-12-22T05:37:37;92866.31;;;6.08;100.00
12793;BME280;6460;42.684;23.260;2023-12-22T05:40:06;92879.00;;;6.22;100.00
12793;BME280;6460;42.684;23.260;2023-12-22T05:42:35;92875.63;;;6.28;100.00
12793;BME280;6460;42.684;23.260;2023-12-22T05:45:04;92872.16;;;6.24;100.00
12793;BME280;6460;42.684;23.260;2023-12-22T05:47:32;92879.28;;;6.13;100.00
12793;BME280;6460;42.684;23.260;2023-12-22T05:50:01;92893.84;;;6.23;100.00
12793;BME280;6460;42.684;23.260;2023-12-22T05:52:29;92889.00;;;6.35;100.00
12793;BME280;6460;42.684;23.260;2023-12-22T05:54:57;92860.91;;;6.49;100.00
12793;BME280;6460;42.684;23.260;2023-12-22T05:57:26;92846.94;;;6.69;100.00
12793;BME280;6460;42.684;23.260;2023-12-22T05:59:54;92839.53;;;6.45;100.00
12793;BME280;6460;42.684;23.260;2023-12-22T06:02:22;92859.78;;;6.53;100.00
12793;BME280;6460;42.684;23.260;2023-12-22T06:04:50;92870.06;;;6.48;100.00
12793;BME280;6460;42.684;23.260;2023-12-22T06:07:19;92864.38;;;6.53;100.00
12793;BME280;6460;42.684;23.260;2023-12-22T06:09:46;92870.44;;;6.50;100.00
12793;BME280;6460;42.684;23.260;2023-12-22T06:12:15;92878.44;;;6.50;100.00
12793;BME280;6460;42.684;23.260;2023-12-22T06:14:43;92880.72;;;6.51;100.00
12793;BME280;6460;42.684;23.260;2023-12-22T06:17:11;92875.41;;;6.55;100.00
12793;BME280;6460;42.684;23.260;2023-12-22T06:19:38;92866.72;;;6.14;100.00
12793;BME280;6460;42.684;23.260;2023-12-22T06:22:06;92889.59;;;6.15;100.00
12793;BME280;6460;42.684;23.260;2023-12-22T06:24:36;92896.19;;;5.21;100.00
12793;BME280;6460;42.684;23.260;2023-12-22T06:27:04;92876.16;;;4.97;100.00
12793;BME280;6460;42.684;23.260;2023-12-22T06:29:33;92884.28;;;5.41;100.00
12793;BME280;6460;42.684;23.260;2023-12-22T06:32:01;92899.31;;;5.26;100.00
12793;BME280;6460;42.684;23.260;2023-12-22T06:34:32;92904.09;;;5.44;100.00
12793;BME280;6460;42.684;23.260;2023-12-22T06:36:59;92901.19;;;5.22;100.00
12793;BME280;6460;42.684;23.260;2023-12-22T06:39:27;92899.28;;;4.67;100.00
12793;BME280;6460;42.684;23.260;2023-12-22T06:41:57;92912.91;;;4.62;100.00
12793;BME280;6460;42.684;23.260;2023-12-22T06:44:24;92904.44;;;4.53;100.00
12793;BME280;6460;42.684;23.260;2023-12-22T06:46:53;92910.59;;;3.66;100.00
12793;BME280;6460;42.684;23.260;2023-12-22T06:49:21;92906.34;;;3.84;100.00
12793;BME280;6460;42.684;23.260;2023-12-22T06:51:49;92910.59;;;3.89;100.00
12793;BME280;6460;42.684;23.260;2023-12-22T06:54:17;92916.69;;;3.28;100.00
12793;BME280;6460;42.684;23.260;2023-12-22T06:56:45;92922.75;;;4.12;100.00
12793;BME280;6460;42.684;23.260;2023-12-22T06:59:14;92905.00;;;3.94;100.00
12793;BME280;6460;42.684;23.260;2023-12-22T07:01:42;92917.09;;;3.91;100.00
12793;BME280;6460;42.684;23.260;2023-12-22T07:04:10;92907.28;;;3.72;100.00
12793;BME280;6460;42.684;23.260;2023-12-22T07:06:37;92923.72;;;4.23;100.00
12793;BME280;6460;42.684;23.260;2023-12-22T07:09:27;92909.41;;;4.32;100.00
12793;BME280;6460;42.684;23.260;2023-12-22T07:11:55;92909.50;;;4.39;100.00
12793;BME280;6460;42.684;23.260;2023-12-22T07:14:25;92910.41;;;4.46;100.00
12793;BME280;6460;42.684;23.260;2023-12-22T07:16:52;92907.38;;;4.48;100.00
12793;BME280;6460;42.684;23.260;2023-12-22T07:19:20;92915.25;;;4.67;100.00
12793;BME280;6460;42.684;23.260;2023-12-22T07:21:48;92926.50;;;4.57;100.00
12793;BME280;6460;42.684;23.260;2023-12-22T07:24:16;92925.69;;;4.53;100.00
12793;BME280;6460;42.684;23.260;2023-12-22T07:26:45;92916.25;;;4.33;100.00
12793;BME280;6460;42.684;23.260;2023-12-22T07:29:13;92931.38;;;4.28;100.00
12793;BME280;6460;42.684;23.260;2023-12-22T07:31:43;92938.31;;;4.33;100.00
12793;BME280;6460;42.684;23.260;2023-12-22T07:34:10;92928.97;;;4.43;100.00
12793;BME280;6460;42.684;23.260;2023-12-22T07:36:37;92927.47;;;4.45;100.00
12793;BME280;6460;42.684;23.260;2023-12-22T07:39:04;92935.69;;;4.59;100.00
12793;BME280;6460;42.684;23.260;2023-12-22T07:41:32;92921.91;;;4.54;100.00
12793;BME280;6460;42.684;23.260;2023-12-22T07:43:59;92924.81;;;4.45;100.00
12793;BME280;6460;42.684;23.260;2023-12-22T07:46:27;92931.81;;;4.31;100.00
12793;BME280;6460;42.684;23.260;2023-12-22T07:48:56;92945.19;;;4.38;100.00
12793;BME280;6460;42.684;23.260;2023-12-22T07:51:23;92916.69;;;4.61;100.00
12793;BME280;6460;42.684;23.260;2023-12-22T07:53:50;92942.25;;;3.97;100.00
12793;BME280;6460;42.684;23.260;2023-12-22T07:56:18;92960.09;;;4.19;100.00
12793;BME280;6460;42.684;23.260;2023-12-22T07:58:45;92972.88;;;4.10;100.00
12793;BME280;6460;42.684;23.260;2023-12-22T08:01:12;92962.56;;;4.32;100.00
12793;BME280;6460;42.684;23.260;2023-12-22T08:03:40;92963.47;;;4.39;100.00
12793;BME280;6460;42.684;23.260;2023-12-22T08:06:09;92968.38;;;4.14;100.00
12793;BME280;6460;42.684;23.260;2023-12-22T08:08:36;92950.00;;;4.28;100.00
12793;BME280;6460;42.684;23.260;2023-12-22T08:11:03;92982.91;;;4.43;100.00
12793;BME280;6460;42.684;23.260;2023-12-22T08:13:30;92989.28;;;4.61;100.00
12793;BME280;6460;42.684;23.260;2023-12-22T08:15:57;92994.66;;;4.65;100.00
12793;BME280;6460;42.684;23.260;2023-12-22T08:18:24;92987.25;;;4.77;100.00
12793;BME280;6460;42.684;23.260;2023-12-22T08:20:52;92998.25;;;4.76;100.00
12793;BME280;6460;42.684;23.260;2023-12-22T08:23:21;92997.31;;;4.65;100.00
12793;BME280;6460;42.684;23.260;2023-12-22T08:25:48;92993.03;;;4.83;100.00
12793;BME280;6460;42.684;23.260;2023-12-22T08:28:15;93000.69;;;4.62;100.00
12793;BME280;6460;42.684;23.260;2023-12-22T08:30:42;92992.69;;;4.85;100.00
12793;BME280;6460;42.684;23.260;2023-12-22T08:33:09;93014.22;;;4.08;100.00
12793;BME280;6460;42.684;23.260;2023-12-22T08:35:37;92998.75;;;4.59;100.00
12793;BME280;6460;42.684;23.260;2023-12-22T08:38:04;92996.97;;;4.66;100.00
12793;BME280;6460;42.684;23.260;2023-12-22T08:40:34;92993.03;;;4.83;100.00
12793;BME280;6460;42.684;23.260;2023-12-22T08:43:01;92999.19;;;4.87;100.00
12793;BME280;6460;42.684;23.260;2023-12-22T08:45:28;93002.13;;;4.82;100.00
12793;BME280;6460;42.684;23.260;2023-12-22T08:47:56;93004.19;;;4.92;100.00
12793;BME280;6460;42.684;23.260;2023-12-22T08:50:23;92992.44;;;4.93;100.00
12793;BME280;6460;42.684;23.260;2023-12-22T08:52:51;92999.31;;;4.94;100.00
12793;BME280;6460;42.684;23.260;2023-12-22T08:55:18;92995.94;;;4.97;100.00
12793;BME280;6460;42.684;23.260;2023-12-22T08:57:47;92989.44;;;4.98;100.00
12793;BME280;6460;42.684;23.260;2023-12-22T09:00:14;93004.25;;;4.96;100.00
12793;BME280;6460;42.684;23.260;2023-12-22T09:02:42;93015.34;;;5.01;100.00
12793;BME280;6460;42.684;23.260;2023-12-22T09:05:09;93012.63;;;4.94;100.00
12793;BME280;6460;42.684;23.260;2023-12-22T09:07:36;93017.78;;;5.10;100.00
12793;BME280;6460;42.684;23.260;2023-12-22T09:10:05;93025.88;;;5.17;100.00
12793;BME280;6460;42.684;23.260;2023-12-22T09:12:32;93027.81;;;5.20;100.00
12793;BME280;6460;42.684;23.260;2023-12-22T09:15:01;93041.38;;;5.38;100.00
12793;BME280;6460;42.684;23.260;2023-12-22T09:17:29;93040.66;;;5.41;100.00
12793;BME280;6460;42.684;23.260;2023-12-22T09:19:56;93042.31;;;5.49;100.00
12793;BME280;6460;42.684;23.260;2023-12-22T09:22:23;93032.31;;;5.42;100.00
12793;BME280;6460;42.684;23.260;2023-12-22T09:24:50;93035.53;;;5.28;100.00
12793;BME280;6460;42.684;23.260;2023-12-22T09:27:18;93037.75;;;5.23;100.00
12793;BME280;6460;42.684;23.260;2023-12-22T09:29:45;93025.91;;;5.47;100.00
12793;BME280;6460;42.684;23.260;2023-12-22T09:32:15;93024.91;;;5.28;100.00
12793;BME280;6460;42.684;23.260;2023-12-22T09:34:42;93021.84;;;5.30;100.00
12793;BME280;6460;42.684;23.260;2023-12-22T09:37:09;93030.72;;;5.38;100.00
12793;BME280;6460;42.684;23.260;2023-12-22T09:39:36;93018.25;;;5.75;100.00
12793;BME280;6460;42.684;23.260;2023-12-22T09:42:05;93010.75;;;5.84;100.00
12793;BME280;6460;42.684;23.260;2023-12-22T09:44:33;93010.19;;;5.68;100.00
12793;BME280;6460;42.684;23.260;2023-12-22T09:47:04;93015.59;;;5.75;100.00
12793;BME280;6460;42.684;23.260;2023-12-22T09:49:33;92997.53;;;5.91;100.00
12793;BME280;6460;42.684;23.260;2023-12-22T09:52:02;93008.03;;;6.10;100.00
12793;BME280;6460;42.684;23.260;2023-12-22T09:54:30;93005.44;;;6.17;100.00
12793;BME280;6460;42.684;23.260;2023-12-22T09:56:59;93013.19;;;6.29;100.00
12793;BME280;6460;42.684;23.260;2023-12-22T09:59:28;92993.78;;;6.32;100.00
12793;BME280;6460;42.684;23.260;2023-12-22T10:01:56;92987.94;;;6.64;100.00
12793;BME280;6460;42.684;23.260;2023-12-22T10:04:24;92995.34;;;6.81;100.00
12793;BME280;6460;42.684;23.260;2023-12-22T10:06:53;92996.97;;;6.89;100.00
12793;BME280;6460;42.684;23.260;2023-12-22T10:09:26;92984.66;;;6.81;100.00
12793;BME280;6460;42.684;23.260;2023-12-22T10:11:54;92988.53;;;6.87;100.00
12793;BME280;6460;42.684;23.260;2023-12-22T10:14:22;92991.22;;;6.90;100.00
12793;BME280;6460;42.684;23.260;2023-12-22T10:16:50;92982.50;;;6.97;100.00
12793;BME280;6460;42.684;23.260;2023-12-22T10:19:18;92977.97;;;7.01;100.00
12793;BME280;6460;42.684;23.260;2023-12-22T10:21:46;92973.28;;;6.87;100.00
12793;BME280;6460;42.684;23.260;2023-12-22T10:24:41;92970.94;;;6.79;100.00
12793;BME280;6460;42.684;23.260;2023-12-22T10:27:13;92954.56;;;6.84;100.00
12793;BME280;6460;42.684;23.260;2023-12-22T10:29:42;92958.41;;;6.90;100.00
12793;BME280;6460;42.684;23.260;2023-12-22T10:32:09;92964.16;;;6.96;100.00
12793;BME280;6460;42.684;23.260;2023-12-22T10:34:36;92960.44;;;7.04;100.00
12793;BME280;6460;42.684;23.260;2023-12-22T10:37:04;92954.31;;;7.03;100.00
12793;BME280;6460;42.684;23.260;2023-12-22T10:39:32;92946.22;;;6.92;100.00
12793;BME280;6460;42.684;23.260;2023-12-22T10:42:01;92927.66;;;7.10;100.00
12793;BME280;6460;42.684;23.260;2023-12-22T10:44:29;92930.38;;;7.17;100.00
12793;BME280;6460;42.684;23.260;2023-12-22T10:46:56;92921.50;;;7.03;100.00
12793;BME280;6460;42.684;23.260;2023-12-22T10:49:25;92907.63;;;7.52;100.00
12793;BME280;6460;42.684;23.260;2023-12-22T10:51:52;92919.53;;;6.89;100.00
12793;BME280;6460;42.684;23.260;2023-12-22T10:54:20;92914.69;;;7.12;100.00
12793;BME280;6460;42.684;23.260;2023-12-22T10:56:47;92912.84;;;7.23;100.00
12793;BME280;6460;42.684;23.260;2023-12-22T10:59:18;92916.75;;;7.43;100.00
12793;BME280;6460;42.684;23.260;2023-12-22T11:01:48;92915.53;;;7.34;100.00
12793;BME280;6460;42.684;23.260;2023-12-22T11:04:20;92919.66;;;7.14;100.00
12793;BME280;6460;42.684;23.260;2023-12-22T11:06:49;92900.69;;;7.33;100.00
12793;BME280;6460;42.684;23.260;2023-12-22T11:09:21;92898.13;;;7.61;100.00
12793;BME280;6460;42.684;23.260;2023-12-22T11:11:52;92883.69;;;8.05;100.00
12793;BME280;6460;42.684;23.260;2023-12-22T11:14:21;92875.28;;;8.03;100.00
12793;BME280;6460;42.684;23.260;2023-12-22T11:16:51;92872.63;;;8.03;100.00
12793;BME280;6460;42.684;23.260;2023-12-22T11:19:20;92856.97;;;8.15;100.00
12793;BME280;6460;42.684;23.260;2023-12-22T11:21:50;92863.09;;;8.33;100.00
12793;BME280;6460;42.684;23.260;2023-12-22T11:24:19;92880.72;;;8.41;97.60
12793;BME280;6460;42.684;23.260;2023-12-22T11:26:49;92879.50;;;8.11;93.88
12793;BME280;6460;42.684;23.260;2023-12-22T11:29:19;92889.84;;;8.16;91.83
12793;BME280;6460;42.684;23.260;2023-12-22T11:31:50;92889.06;;;8.15;92.54
12793;BME280;6460;42.684;23.260;2023-12-22T11:34:20;92900.91;;;8.07;91.40
12793;BME280;6460;42.684;23.260;2023-12-22T11:36:48;92905.84;;;7.87;91.04
12793;BME280;6460;42.684;23.260;2023-12-22T11:39:17;92912.34;;;7.97;91.20
12793;BME280;6460;42.684;23.260;2023-12-22T11:41:44;92922.66;;;7.88;91.00
12793;BME280;6460;42.684;23.260;2023-12-22T11:44:14;92941.72;;;7.83;90.05
12793;BME280;6460;42.684;23.260;2023-12-22T11:46:42;92950.50;;;7.80;90.36
12793;BME280;6460;42.684;23.260;2023-12-22T11:49:11;92921.78;;;7.63;90.87
12793;BME280;6460;42.684;23.260;2023-12-22T11:51:38;92921.78;;;7.63;91.33
12793;BME280;6460;42.684;23.260;2023-12-22T11:57:29;92946.94;;;7.51;92.51
12793;BME280;6460;42.684;23.260;2023-12-22T11:59:58;92938.47;;;7.38;93.22
12793;BME280;6460;42.684;23.260;2023-12-22T12:02:26;92952.91;;;7.23;94.50
12793;BME280;6460;42.684;23.260;2023-12-22T12:04:57;92978.53;;;7.31;94.52
12793;BME280;6460;42.684;23.260;2023-12-22T12:07:44;92946.84;;;7.30;93.97
12793;BME280;6460;42.684;23.260;2023-12-22T12:13:06;92963.88;;;7.04;95.11
12793;BME280;6460;42.684;23.260;2023-12-22T12:15:34;92959.28;;;7.01;95.31
12793;BME280;6460;42.684;23.260;2023-12-22T12:18:01;92965.16;;;7.31;94.50
12793;BME280;6460;42.684;23.260;2023-12-22T12:20:31;92938.28;;;7.03;94.73
12793;BME280;6460;42.684;23.260;2023-12-22T12:22:58;92917.25;;;6.91;94.60
12793;BME280;6460;42.684;23.260;2023-12-22T12:25:28;92924.53;;;6.98;94.74
12793;BME280;6460;42.684;23.260;2023-12-22T12:28:04;92906.94;;;6.93;94.77
12793;BME280;6460;42.684;23.260;2023-12-22T12:30:32;92925.69;;;7.04;91.98
12793;BME280;6460;42.684;23.260;2023-12-22T12:33:06;92939.00;;;6.97;90.33
12793;BME280;6460;42.684;23.260;2023-12-22T12:35:35;92918.38;;;6.93;90.60
12793;BME280;6460;42.684;23.260;2023-12-22T12:38:04;92900.84;;;6.96;90.75
12793;BME280;6460;42.684;23.260;2023-12-22T12:40:32;92884.50;;;7.01;90.54
12793;BME280;6460;42.684;23.260;2023-12-22T12:43:01;92868.94;;;7.17;91.15
12793;BME280;6460;42.684;23.260;2023-12-22T12:45:29;92871.47;;;6.92;92.24
12793;BME280;6460;42.684;23.260;2023-12-22T12:47:56;92865.34;;;6.85;93.84
12793;BME280;6460;42.684;23.260;2023-12-22T12:50:24;92872.69;;;7.09;94.11
12793;BME280;6460;42.684;23.260;2023-12-22T12:52:54;92884.03;;;6.85;93.79
12793;BME280;6460;42.684;23.260;2023-12-22T12:55:23;92916.09;;;6.92;91.35
12793;BME280;6460;42.684;23.260;2023-12-22T12:57:51;92896.41;;;7.18;88.81
12793;BME280;6460;42.684;23.260;2023-12-22T13:00:24;92923.84;;;7.11;89.19
12793;BME280;6460;42.684;23.260;2023-12-22T13:02:53;92908.88;;;7.00;89.24
12793;BME280;6460;42.684;23.260;2023-12-22T13:05:22;92951.31;;;7.12;86.71
12793;BME280;6460;42.684;23.260;2023-12-22T13:07:50;92932.59;;;7.05;87.75
12793;BME280;6460;42.684;23.260;2023-12-22T13:10:23;92925.66;;;6.97;88.60
12793;BME280;6460;42.684;23.260;2023-12-22T13:12:51;92916.88;;;6.96;88.32
12793;BME280;6460;42.684;23.260;2023-12-22T13:15:20;92926.13;;;7.09;87.68